Time;durP1;ratioP1;P1;durP2;ratioP2;P2;SDS_P1;SDS_P2;PMS_P1;PMS_P2;Temp;Humidity;BMP_temperature;BMP_pressure;BME280_temperature;BME280_humidity;BME280_pressure;Samples;Min_cycle;Max_cycle;Signal;HPM_P1;HPM_P2
2022/10/26 00:02:14;;;;;;;;;;;19.90;74.90;;;;;;4495285;31;19970;-70
2022/10/26 00:04:39;;;;;;;;;;;19.90;74.80;;;;;;4495291;31;20023;-70
2022/10/26 00:07:05;;;;;;;;;;;19.90;74.80;;;;;;4495190;31;19962;-70
2022/10/26 00:09:31;;;;;;;;;;;19.90;74.80;;;;;;4495209;31;19981;-70
2022/10/26 00:11:57;;;;;;;;;;;19.90;74.80;;;;;;4494938;31;19981;-70
2022/10/26 00:14:23;;;;;;;;;;;19.90;74.80;;;;;;4495155;31;19962;-70
2022/10/26 00:16:49;;;;;;;;;;;19.90;74.80;;;;;;4494858;31;20112;-70
2022/10/26 00:19:14;;;;;;;;;;;19.90;74.80;;;;;;4495070;31;20429;-69
2022/10/26 00:21:40;;;;;;;;;;;19.90;74.80;;;;;;4494996;31;19966;-70
2022/10/26 00:24:06;;;;;;;;;;;19.80;74.70;;;;;;4494913;31;20005;-70
2022/10/26 00:26:31;;;;;;;;;;;19.80;74.70;;;;;;4495174;31;20096;-70
2022/10/26 00:28:57;;;;;;;;;;;19.80;74.70;;;;;;4494921;31;20071;-70
2022/10/26 00:31:23;;;;;;;;;;;19.80;74.70;;;;;;4494909;31;19962;-70
2022/10/26 00:33:52;;;;;;;;;;;19.80;74.70;;;;;;4494740;31;19984;-70
2022/10/26 00:36:19;;;;;;;;;;;19.80;74.70;;;;;;4494560;31;20118;-70
2022/10/26 00:38:52;;;;;;;;;;;19.80;74.70;;;;;;4494288;31;19993;-70
2022/10/26 00:41:18;;;;;;;;;;;19.80;74.70;;;;;;4494516;31;20383;-70
2022/10/26 00:43:44;;;;;;;;;;;19.80;74.70;;;;;;4494601;31;19985;-70
2022/10/26 00:46:12;;;;;;;;;;;19.80;74.70;;;;;;4494480;31;19976;-70
2022/10/26 00:48:43;;;;;;;;;;;19.80;74.70;;;;;;4494781;31;19988;-70
2022/10/26 00:51:12;;;;;;;;;;;19.70;74.60;;;;;;4494208;31;20058;-70
2022/10/26 00:53:38;;;;;;;;;;;19.80;74.70;;;;;;4493867;31;19970;-70
2022/10/26 00:56:04;;;;;;;;;;;19.80;74.70;;;;;;4494444;31;20046;-70
2022/10/26 00:58:30;;;;;;;;;;;19.70;74.60;;;;;;4494113;31;20000;-70
2022/10/26 01:00:55;;;;;;;;;;;19.70;74.60;;;;;;4494502;31;19992;-70
2022/10/26 01:03:24;;;;;;;;;;;19.70;74.60;;;;;;4494666;31;20024;-70
2022/10/26 01:05:50;;;;;;;;;;;19.70;74.60;;;;;;4494039;31;20000;-70
2022/10/26 01:08:17;;;;;;;;;;;19.70;74.60;;;;;;4494185;31;20013;-69
2022/10/26 01:10:43;;;;;;;;;;;19.70;74.60;;;;;;4494245;31;20390;-70
2022/10/26 01:13:10;;;;;;;;;;;19.70;74.50;;;;;;4494427;31;19992;-70
2022/10/26 01:15:36;;;;;;;;;;;19.70;74.60;;;;;;4494177;31;20438;-70
2022/10/26 01:18:31;;;;;;;;;;;19.70;74.50;;;;;;4494172;31;19980;-70
2022/10/26 01:21:20;;;;;;;;;;;19.70;74.50;;;;;;4483613;31;20005;-70
2022/10/26 01:24:04;;;;;;;;;;;19.70;74.60;;;;;;4487496;31;20491;-70
2022/10/26 01:26:44;;;;;;;;;;;19.70;74.50;;;;;;4494300;31;20330;-70
2022/10/26 01:29:19;;;;;;;;;;;19.60;74.50;;;;;;4494359;31;20391;-70
2022/10/26 01:31:48;;;;;;;;;;;19.60;74.50;;;;;;4494360;31;19970;-70
2022/10/26 01:34:20;;;;;;;;;;;19.60;74.50;;;;;;4493692;31;19981;-70
2022/10/26 01:36:52;;;;;;;;;;;19.60;74.40;;;;;;4494006;31;19993;-70
2022/10/26 01:39:37;;;;;;;;;;;19.60;74.40;;;;;;4494257;31;19986;-70
2022/10/26 01:42:04;;;;;;;;;;;19.60;74.40;;;;;;4493876;31;19990;-69
2022/10/26 01:44:33;;;;;;;;;;;19.60;74.50;;;;;;4493661;31;20123;-70
2022/10/26 01:47:00;;;;;;;;;;;19.60;74.50;;;;;;4493351;31;19987;-70
2022/10/26 01:49:27;;;;;;;;;;;19.60;74.40;;;;;;4494066;31;19973;-70
2022/10/26 01:51:53;;;;;;;;;;;19.60;74.40;;;;;;4479604;31;19977;-70
2022/10/26 01:54:19;;;;;;;;;;;19.60;74.40;;;;;;4493593;31;20028;-70
2022/10/26 01:56:47;;;;;;;;;;;19.60;74.40;;;;;;4493362;31;20046;-70
2022/10/26 01:59:22;;;;;;;;;;;19.60;74.40;;;;;;4493608;31;19988;-70
2022/10/26 02:01:49;;;;;;;;;;;19.60;74.40;;;;;;4493525;31;20413;-70
2022/10/26 02:04:26;;;;;;;;;;;19.60;74.40;;;;;;4493307;31;20544;-70
2022/10/26 02:07:02;;;;;;;;;;;19.60;74.40;;;;;;4493745;31;20008;-70
2022/10/26 02:09:41;;;;;;;;;;;19.60;74.30;;;;;;4493467;31;20303;-70
2022/10/26 02:12:13;;;;;;;;;;;19.60;74.40;;;;;;4493658;31;19973;-70
2022/10/26 02:14:49;;;;;;;;;;;19.50;74.30;;;;;;4493540;31;19973;-70
2022/10/26 02:17:39;;;;;;;;;;;19.60;74.40;;;;;;4493099;31;20399;-70
2022/10/26 02:20:07;;;;;;;;;;;19.50;74.30;;;;;;4493352;31;19974;-70
2022/10/26 02:22:38;;;;;;;;;;;19.50;74.30;;;;;;4492860;31;19969;-70
2022/10/26 02:25:06;;;;;;;;;;;19.50;74.30;;;;;;4492922;31;19988;-70
2022/10/26 02:27:35;;;;;;;;;;;19.50;74.30;;;;;;4493252;31;19973;-70
2022/10/26 02:30:01;;;;;;;;;;;19.50;74.30;;;;;;4493152;31;19990;-68
2022/10/26 02:32:30;;;;;;;;;;;19.50;74.20;;;;;;4492897;31;20001;-70
2022/10/26 02:34:58;;;;;;;;;;;19.50;74.20;;;;;;4493088;31;19977;-69
2022/10/26 02:37:25;;;;;;;;;;;19.50;74.20;;;;;;4493128;31;20395;-70
2022/10/26 02:39:51;;;;;;;;;;;19.50;74.20;;;;;;4493085;31;19973;-70
2022/10/26 02:42:17;;;;;;;;;;;19.50;74.20;;;;;;4492945;31;20017;-70
2022/10/26 02:44:56;;;;;;;;;;;19.50;74.20;;;;;;4492952;31;20058;-70
2022/10/26 02:47:23;;;;;;;;;;;19.50;74.20;;;;;;4493170;31;20489;-70
2022/10/26 02:49:48;;;;;;;;;;;19.40;74.10;;;;;;4493193;31;19969;-70
2022/10/26 02:52:17;;;;;;;;;;;19.40;74.10;;;;;;4492956;31;20307;-70
2022/10/26 02:54:42;;;;;;;;;;;19.40;74.10;;;;;;4492991;31;20298;-70
2022/10/26 02:57:13;;;;;;;;;;;19.50;74.20;;;;;;4492693;31;19958;-68
2022/10/26 02:59:41;;;;;;;;;;;19.40;74.10;;;;;;4493011;31;19992;-70
2022/10/26 03:02:06;;;;;;;;;;;19.40;74.10;;;;;;4493047;31;20013;-70
2022/10/26 03:04:33;;;;;;;;;;;19.40;74.10;;;;;;4492932;31;19972;-70
2022/10/26 03:06:59;;;;;;;;;;;19.40;74.10;;;;;;4492425;31;20079;-70
2022/10/26 03:09:24;;;;;;;;;;;19.40;74.10;;;;;;4492696;31;20079;-70
2022/10/26 03:11:50;;;;;;;;;;;19.40;74.10;;;;;;4478726;31;19981;-70
2022/10/26 03:14:16;;;;;;;;;;;19.40;74.10;;;;;;4492925;31;20382;-70
2022/10/26 03:16:42;;;;;;;;;;;19.40;74.10;;;;;;4492157;31;19980;-70
2022/10/26 03:19:08;;;;;;;;;;;19.40;74.10;;;;;;4492635;32;19969;-70
2022/10/26 03:21:34;;;;;;;;;;;19.40;74.00;;;;;;4492893;32;20108;-70
2022/10/26 03:23:59;;;;;;;;;;;19.40;74.00;;;;;;4492899;32;19970;-70
2022/10/26 03:26:25;;;;;;;;;;;19.40;74.00;;;;;;4492503;32;19986;-70
2022/10/26 03:28:50;;;;;;;;;;;19.30;74.00;;;;;;4492858;32;19969;-70
2022/10/26 03:31:16;;;;;;;;;;;19.40;74.10;;;;;;4492372;32;20013;-70
2022/10/26 03:33:42;;;;;;;;;;;19.30;74.00;;;;;;4492600;32;19970;-69
2022/10/26 03:36:08;;;;;;;;;;;19.40;74.00;;;;;;4492261;32;19966;-70
2022/10/26 03:38:33;;;;;;;;;;;19.40;74.00;;;;;;4492533;32;20051;-70
2022/10/26 03:40:59;;;;;;;;;;;19.30;74.00;;;;;;4492212;32;20327;-69
2022/10/26 03:43:25;;;;;;;;;;;19.30;73.90;;;;;;4492500;32;20035;-70
2022/10/26 03:45:51;;;;;;;;;;;19.30;74.00;;;;;;4492010;32;19969;-70
2022/10/26 03:48:17;;;;;;;;;;;19.30;73.90;;;;;;4492155;32;20006;-69
2022/10/26 03:50:43;;;;;;;;;;;19.30;73.90;;;;;;4492197;32;19961;-70
2022/10/26 03:53:08;;;;;;;;;;;19.30;73.90;;;;;;4492114;32;19958;-70
2022/10/26 03:55:34;;;;;;;;;;;19.30;73.90;;;;;;4492458;32;19981;-70
2022/10/26 03:58:00;;;;;;;;;;;19.30;73.90;;;;;;4492643;32;20005;-70
2022/10/26 04:00:25;;;;;;;;;;;19.30;73.90;;;;;;4477909;32;20031;-70
2022/10/26 04:02:55;;;;;;;;;;;19.30;73.90;;;;;;4492149;32;20096;-70
2022/10/26 04:05:22;;;;;;;;;;;19.30;73.80;;;;;;4491984;32;19970;-70
2022/10/26 04:07:54;;;;;;;;;;;19.30;73.90;;;;;;4492040;32;20009;-70
2022/10/26 04:10:21;;;;;;;;;;;19.30;73.80;;;;;;4492377;32;20075;-70
2022/10/26 04:12:46;;;;;;;;;;;19.30;73.90;;;;;;4492289;32;19974;-70
2022/10/26 04:15:13;;;;;;;;;;;19.20;73.80;;;;;;4492531;32;19980;-69
2022/10/26 04:17:40;;;;;;;;;;;19.20;73.80;;;;;;4492000;32;19988;-69
2022/10/26 04:20:06;;;;;;;;;;;19.20;73.50;;;;;;4491879;32;20315;-69
2022/10/26 04:22:31;;;;;;;;;;;19.20;72.40;;;;;;4491906;32;19973;-69
2022/10/26 04:24:57;;;;;;;;;;;19.20;72.70;;;;;;4491902;32;20021;-69
2022/10/26 04:27:22;;;;;;;;;;;19.20;72.20;;;;;;4492485;31;19980;-69
2022/10/26 04:29:48;;;;;;;;;;;19.20;72.30;;;;;;4480755;31;19961;-69
2022/10/26 04:32:14;;;;;;;;;;;19.20;73.10;;;;;;4494983;31;20350;-69
2022/10/26 04:34:39;;;;;;;;;;;19.20;73.40;;;;;;4494612;31;20100;-70
2022/10/26 04:37:05;;;;;;;;;;;19.20;73.40;;;;;;4494876;31;19973;-69
2022/10/26 04:39:31;;;;;;;;;;;19.20;73.50;;;;;;4494517;31;20310;-69
2022/10/26 04:41:56;;;;;;;;;;;19.20;73.70;;;;;;4494506;31;20126;-69
2022/10/26 04:44:22;;;;;;;;;;;19.20;73.60;;;;;;4494705;31;20280;-69
2022/10/26 04:46:48;;;;;;;;;;;19.20;73.60;;;;;;4494660;31;19981;-69
2022/10/26 04:49:13;;;;;;;;;;;19.20;73.60;;;;;;4494731;31;19974;-68
2022/10/26 04:51:39;;;;;;;;;;;19.20;73.80;;;;;;4494855;31;19982;-70
2022/10/26 04:54:05;;;;;;;;;;;19.20;74.00;;;;;;4494628;31;20284;-69
2022/10/26 04:56:30;;;;;;;;;;;19.20;74.00;;;;;;4494230;31;19975;-69
2022/10/26 04:58:56;;;;;;;;;;;19.20;74.00;;;;;;4494185;31;20112;-69
2022/10/26 05:01:22;;;;;;;;;;;19.20;74.10;;;;;;4494474;31;20070;-70
2022/10/26 05:03:48;;;;;;;;;;;19.20;74.10;;;;;;4494461;31;20319;-71
2022/10/26 05:06:14;;;;;;;;;;;19.20;74.10;;;;;;4494266;31;20338;-71
2022/10/26 05:08:39;;;;;;;;;;;19.20;74.20;;;;;;4494600;31;19974;-70
2022/10/26 05:11:05;;;;;;;;;;;19.20;74.20;;;;;;4494376;31;19981;-70
2022/10/26 05:13:31;;;;;;;;;;;19.20;74.30;;;;;;4494486;31;19988;-69
2022/10/26 05:15:56;;;;;;;;;;;19.20;74.30;;;;;;4494232;31;19994;-70
2022/10/26 05:18:23;;;;;;;;;;;19.20;74.40;;;;;;4492191;31;19970;-71
2022/10/26 05:20:51;;;;;;;;;;;19.20;74.40;;;;;;4494274;31;19965;-69
2022/10/26 05:23:17;;;;;;;;;;;19.20;74.40;;;;;;4494181;31;20001;-71
2022/10/26 05:25:43;;;;;;;;;;;19.20;74.40;;;;;;4494075;31;19988;-71
2022/10/26 05:28:12;;;;;;;;;;;19.20;74.30;;;;;;4494491;31;19973;-70
2022/10/26 05:30:42;;;;;;;;;;;19.10;74.30;;;;;;4493053;31;19989;-75
2022/10/26 05:33:08;;;;;;;;;;;19.10;74.20;;;;;;4493951;31;20013;-69
2022/10/26 05:35:34;;;;;;;;;;;19.10;74.30;;;;;;4493901;31;19970;-70
2022/10/26 05:38:05;;;;;;;;;;;19.20;74.40;;;;;;4493779;31;20298;-70
2022/10/26 05:40:31;;;;;;;;;;;19.10;74.30;;;;;;4493913;31;19995;-70
2022/10/26 05:43:00;;;;;;;;;;;19.10;74.20;;;;;;4493838;31;20424;-70
2022/10/26 05:45:26;;;;;;;;;;;19.10;74.20;;;;;;4493808;31;19993;-70
2022/10/26 05:47:52;;;;;;;;;;;19.10;74.30;;;;;;4493491;31;20055;-70
2022/10/26 05:50:18;;;;;;;;;;;19.10;74.20;;;;;;4493649;31;19970;-70
2022/10/26 05:52:45;;;;;;;;;;;19.10;74.30;;;;;;4493672;31;20015;-70
2022/10/26 05:55:15;;;;;;;;;;;19.10;74.20;;;;;;4493890;31;19988;-71
2022/10/26 05:57:41;;;;;;;;;;;19.00;74.20;;;;;;4493356;31;20040;-70
2022/10/26 06:00:08;;;;;;;;;;;19.00;74.20;;;;;;4493297;31;20067;-70
2022/10/26 06:02:52;;;;;;;;;;;19.00;74.30;;;;;;4493771;31;19985;-70
2022/10/26 06:05:21;;;;;;;;;;;19.10;74.40;;;;;;4493385;31;20115;-70
2022/10/26 06:07:47;;;;;;;;;;;19.00;74.20;;;;;;4493275;31;19984;-70
2022/10/26 06:10:13;;;;;;;;;;;19.00;74.20;;;;;;4493417;31;19969;-71
2022/10/26 06:12:38;;;;;;;;;;;19.00;74.20;;;;;;4493603;31;19966;-70
2022/10/26 06:15:04;;;;;;;;;;;19.00;74.20;;;;;;4493372;31;19966;-70
2022/10/26 06:17:36;;;;;;;;;;;19.00;74.20;;;;;;4493017;31;19985;-71
2022/10/26 06:20:21;;;;;;;;;;;19.00;74.20;;;;;;4493273;31;20330;-71
2022/10/26 06:22:50;;;;;;;;;;;19.00;74.20;;;;;;4493418;31;20023;-70
2022/10/26 06:25:18;;;;;;;;;;;19.00;74.20;;;;;;4493135;31;20418;-70
2022/10/26 06:27:56;;;;;;;;;;;19.00;74.20;;;;;;4492936;31;19984;-70
2022/10/26 06:30:22;;;;;;;;;;;19.00;74.20;;;;;;4492891;31;19970;-70
2022/10/26 06:32:48;;;;;;;;;;;19.00;74.20;;;;;;4492817;31;20318;-70
2022/10/26 06:35:44;;;;;;;;;;;19.00;74.20;;;;;;4493378;31;19979;-71
2022/10/26 06:38:14;;;;;;;;;;;19.00;74.20;;;;;;4449806;31;20129;-70
2022/10/26 06:40:42;;;;;;;;;;;19.00;74.30;;;;;;4493093;31;20403;-71
2022/10/26 06:43:19;;;;;;;;;;;19.00;74.30;;;;;;4492941;31;20569;-71
2022/10/26 06:45:47;;;;;;;;;;;18.90;74.20;;;;;;4492922;31;20411;-70
2022/10/26 06:48:15;;;;;;;;;;;18.90;74.20;;;;;;4479011;31;20099;-70
2022/10/26 06:50:41;;;;;;;;;;;18.90;74.20;;;;;;4492329;31;19984;-71
2022/10/26 06:53:09;;;;;;;;;;;18.90;74.20;;;;;;4493117;31;19974;-70
2022/10/26 06:55:40;;;;;;;;;;;18.90;74.20;;;;;;4492843;31;20025;-70
2022/10/26 06:58:12;;;;;;;;;;;18.90;74.10;;;;;;4493136;31;20377;-70
2022/10/26 07:00:38;;;;;;;;;;;18.90;74.20;;;;;;4492775;31;20377;-70
2022/10/26 07:03:03;;;;;;;;;;;18.90;74.20;;;;;;4492560;31;19973;-70
2022/10/26 07:05:29;;;;;;;;;;;18.90;74.20;;;;;;4492452;31;19997;-71
2022/10/26 07:07:55;;;;;;;;;;;18.90;74.20;;;;;;4492913;31;19996;-70
2022/10/26 07:10:20;;;;;;;;;;;18.90;74.20;;;;;;4492719;31;19976;-71
2022/10/26 07:12:46;;;;;;;;;;;18.90;74.30;;;;;;4492626;31;19978;-71
2022/10/26 07:15:12;;;;;;;;;;;18.90;74.30;;;;;;4492613;31;19970;-70
2022/10/26 07:17:45;;;;;;;;;;;18.90;74.30;;;;;;4492609;31;19985;-71
2022/10/26 07:20:11;;;;;;;;;;;18.90;74.20;;;;;;4492859;32;19988;-71
2022/10/26 07:22:37;;;;;;;;;;;18.90;74.30;;;;;;4492804;32;20037;-70
2022/10/26 07:25:03;;;;;;;;;;;18.90;74.30;;;;;;4492212;32;20311;-70
2022/10/26 07:27:29;;;;;;;;;;;18.90;74.30;;;;;;4492628;32;20117;-70
2022/10/26 07:29:54;;;;;;;;;;;18.90;74.30;;;;;;4492520;32;20383;-70
2022/10/26 07:32:20;;;;;;;;;;;18.90;74.30;;;;;;4478042;32;19973;-70
2022/10/26 07:34:46;;;;;;;;;;;18.90;74.30;;;;;;4492218;32;20103;-70
2022/10/26 07:37:11;;;;;;;;;;;18.80;74.20;;;;;;4492562;32;20021;-71
2022/10/26 07:39:37;;;;;;;;;;;18.80;74.10;;;;;;4492449;32;20435;-71
2022/10/26 07:42:03;;;;;;;;;;;18.80;74.20;;;;;;4478031;32;20323;-70
2022/10/26 07:44:28;;;;;;;;;;;18.80;74.20;;;;;;4492434;32;19985;-70
2022/10/26 07:46:54;;;;;;;;;;;18.80;74.20;;;;;;4492274;32;19974;-70
2022/10/26 07:49:20;;;;;;;;;;;18.80;74.20;;;;;;4492392;32;19974;-71
2022/10/26 07:51:45;;;;;;;;;;;18.80;74.20;;;;;;4492440;32;20001;-71
2022/10/26 07:54:11;;;;;;;;;;;18.80;74.20;;;;;;4492396;32;19962;-70
2022/10/26 07:56:37;;;;;;;;;;;18.80;74.20;;;;;;4492433;32;19970;-69
2022/10/26 07:59:02;;;;;;;;;;;18.80;74.20;;;;;;4492522;32;19981;-69
2022/10/26 08:01:28;;;;;;;;;;;18.80;74.20;;;;;;4493036;31;20013;-69
2022/10/26 08:03:54;;;;;;;;;;;18.80;74.20;;;;;;4495311;31;20420;-69
2022/10/26 08:06:20;;;;;;;;;;;18.80;74.30;;;;;;4495472;31;19986;-69
2022/10/26 08:08:46;;;;;;;;;;;18.80;74.40;;;;;;4481207;31;20062;-69
2022/10/26 08:11:12;;;;;;;;;;;18.80;74.50;;;;;;4494895;31;19984;-70
2022/10/26 08:13:37;;;;;;;;;;;18.80;74.60;;;;;;4495190;31;20005;-70
2022/10/26 08:16:04;;;;;;;;;;;18.80;74.60;;;;;;4495109;31;20113;-70
2022/10/26 08:18:30;;;;;;;;;;;18.90;74.60;;;;;;4494927;31;19981;-70
2022/10/26 08:21:03;;;;;;;;;;;18.90;74.50;;;;;;4495026;31;19970;-70
2022/10/26 08:23:29;;;;;;;;;;;18.90;74.50;;;;;;4494952;31;19985;-70
2022/10/26 08:25:59;;;;;;;;;;;18.90;74.50;;;;;;4495441;31;20012;-70
2022/10/26 08:28:25;;;;;;;;;;;18.90;74.50;;;;;;4494880;31;20120;-69
2022/10/26 08:30:50;;;;;;;;;;;18.90;74.50;;;;;;4494921;31;20321;-70
2022/10/26 08:33:16;;;;;;;;;;;18.90;74.50;;;;;;4495137;31;20023;-70
2022/10/26 08:35:42;;;;;;;;;;;18.90;74.50;;;;;;4494893;31;19970;-69
2022/10/26 08:38:07;;;;;;;;;;;18.90;74.50;;;;;;4494536;31;20028;-70
2022/10/26 08:40:36;;;;;;;;;;;18.90;74.50;;;;;;4494781;31;20050;-70
2022/10/26 08:43:15;;;;;;;;;;;18.90;74.50;;;;;;4494748;31;20017;-70
2022/10/26 08:45:46;;;;;;;;;;;18.90;74.50;;;;;;4494732;31;20391;-70
2022/10/26 08:48:17;;;;;;;;;;;18.90;74.60;;;;;;4494395;31;20311;-70
2022/10/26 08:51:04;;;;;;;;;;;18.90;74.60;;;;;;4494956;31;19988;-69
2022/10/26 08:53:39;;;;;;;;;;;18.90;74.70;;;;;;4480504;31;20021;-67
2022/10/26 08:56:10;;;;;;;;;;;18.90;74.50;;;;;;4494218;31;19977;-72
2022/10/26 08:58:37;;;;;;;;;;;18.90;74.50;;;;;;4480461;31;19974;-69
2022/10/26 09:01:04;;;;;;;;;;;18.90;74.50;;;;;;4480310;31;20334;-70
2022/10/26 09:03:29;;;;;;;;;;;19.00;74.50;;;;;;4494758;31;20383;-69
2022/10/26 09:06:12;;;;;;;;;;;18.90;74.40;;;;;;4494231;31;19966;-70
2022/10/26 09:08:55;;;;;;;;;;;19.00;74.40;;;;;;4494421;31;20316;-69
2022/10/26 09:11:35;;;;;;;;;;;19.00;74.50;;;;;;4494421;31;20442;-69
2022/10/26 09:14:10;;;;;;;;;;;19.00;74.50;;;;;;4493724;31;20029;-69
2022/10/26 09:16:51;;;;;;;;;;;18.90;74.40;;;;;;4493988;31;19979;-70
2022/10/26 09:19:23;;;;;;;;;;;18.90;74.40;;;;;;4494190;31;19985;-69
2022/10/26 09:21:49;;;;;;;;;;;18.90;74.40;;;;;;4494250;31;19977;-69
2022/10/26 09:24:22;;;;;;;;;;;18.90;74.40;;;;;;4494131;31;19996;-69
2022/10/26 09:26:48;;;;;;;;;;;19.00;74.50;;;;;;4494165;31;20017;-69
2022/10/26 09:29:14;;;;;;;;;;;18.90;74.50;;;;;;4493868;31;20009;-69
2022/10/26 09:31:49;;;;;;;;;;;18.90;74.40;;;;;;4494243;31;20055;-69
2022/10/26 09:34:27;;;;;;;;;;;18.90;74.50;;;;;;4494543;31;20451;-69
2022/10/26 09:36:54;;;;;;;;;;;18.90;74.50;;;;;;4493923;31;20050;-69
2022/10/26 09:39:41;;;;;;;;;;;18.90;74.50;;;;;;4493978;31;20509;-69
2022/10/26 09:42:19;;;;;;;;;;;18.90;74.50;;;;;;4479588;31;20009;-69
2022/10/26 09:44:49;;;;;;;;;;;18.90;74.50;;;;;;4493827;31;20082;-69
2022/10/26 09:47:33;;;;;;;;;;;18.90;75.40;;;;;;4493502;31;20064;-70
2022/10/26 09:50:19;;;;;;;;;;;18.90;74.60;;;;;;4494005;31;19969;-69
2022/10/26 09:52:45;;;;;;;;;;;18.90;74.60;;;;;;4493280;31;19989;-69
2022/10/26 09:55:11;;;;;;;;;;;18.90;74.50;;;;;;4493846;31;19977;-69
2022/10/26 09:57:38;;;;;;;;;;;18.90;74.50;;;;;;4493670;31;19978;-69
2022/10/26 10:00:04;;;;;;;;;;;18.90;74.60;;;;;;4493538;31;20338;-69
2022/10/26 10:02:31;;;;;;;;;;;18.90;74.60;;;;;;4493530;31;19969;-69
2022/10/26 10:04:57;;;;;;;;;;;18.90;74.60;;;;;;4493670;31;19989;-69
2022/10/26 10:07:22;;;;;;;;;;;18.90;74.60;;;;;;4493497;31;20300;-70
2022/10/26 10:10:26;;;;;;;;;;;18.90;74.60;;;;;;4493653;31;20001;-70
2022/10/26 10:12:52;;;;;;;;;;;18.90;74.60;;;;;;4444257;32;19970;-69
2022/10/26 10:15:20;;;;;;;;;;;18.90;74.60;;;;;;4444561;32;20092;-69
2022/10/26 10:17:47;;;;;;;;;;;18.90;74.60;;;;;;4470668;31;19982;-69
2022/10/26 10:20:24;;;;;;;;;;;18.90;74.60;;;;;;4493268;31;20391;-70
2022/10/26 10:22:55;;;;;;;;;;;18.90;74.70;;;;;;4493388;31;19982;-69
2022/10/26 10:25:22;;;;;;;;;;;18.90;74.70;;;;;;4493361;31;20162;-69
2022/10/26 10:27:51;;;;;;;;;;;18.90;74.70;;;;;;4493143;31;20016;-69
2022/10/26 10:30:21;;;;;;;;;;;18.90;74.70;;;;;;4493135;31;20028;-69
2022/10/26 10:33:02;;;;;;;;;;;18.90;74.70;;;;;;4493890;31;20050;-69
2022/10/26 10:35:28;;;;;;;;;;;18.90;74.70;;;;;;4494983;31;20018;-69
2022/10/26 10:37:54;;;;;;;;;;;18.90;74.80;;;;;;4492905;31;20481;-69
2022/10/26 10:40:21;;;;;;;;;;;18.90;74.70;;;;;;4493258;31;19978;-69
2022/10/26 10:42:48;;;;;;;;;;;18.90;74.70;;;;;;4492982;31;20096;-69
2022/10/26 10:45:21;;;;;;;;;;;19.00;74.70;;;;;;4492968;31;20408;-69
2022/10/26 10:48:05;;;;;;;;;;;18.90;74.70;;;;;;4492860;31;19985;-69
2022/10/26 10:50:32;;;;;;;;;;;18.90;74.70;;;;;;4492955;31;20031;-69
2022/10/26 10:53:18;;;;;;;;;;;18.90;74.70;;;;;;4492900;31;20005;-69
2022/10/26 10:56:04;;;;;;;;;;;18.90;74.70;;;;;;4492884;31;20399;-69
2022/10/26 10:58:36;;;;;;;;;;;18.90;74.70;;;;;;4489545;31;19989;-69
2022/10/26 11:01:02;;;;;;;;;;;18.90;74.70;;;;;;4493093;31;19965;-69
2022/10/26 11:03:31;;;;;;;;;;;18.90;74.80;;;;;;4492734;31;20468;-69
2022/10/26 11:05:56;;;;;;;;;;;18.90;74.70;;;;;;4492648;31;19965;-69
2022/10/26 11:08:26;;;;;;;;;;;18.90;74.70;;;;;;4492414;31;19969;-69
2022/10/26 11:11:03;;;;;;;;;;;18.90;74.80;;;;;;4492889;31;20511;-69
2022/10/26 11:13:33;;;;;;;;;;;18.90;74.70;;;;;;4492789;31;20383;-69
2022/10/26 11:16:01;;;;;;;;;;;18.90;74.80;;;;;;4492641;31;20395;-70
2022/10/26 11:18:40;;;;;;;;;;;18.90;74.80;;;;;;4492545;31;20060;-69
2022/10/26 11:21:25;;;;;;;;;;;18.90;74.80;;;;;;4492608;32;19987;-69
2022/10/26 11:23:56;;;;;;;;;;;18.90;74.80;;;;;;4492348;32;19992;-69
2022/10/26 11:26:26;;;;;;;;;;;18.90;74.80;;;;;;4492601;32;19973;-69
2022/10/26 11:28:59;;;;;;;;;;;18.90;74.80;;;;;;4492551;32;19981;-69
2022/10/26 11:31:29;;;;;;;;;;;18.90;74.80;;;;;;4492759;32;20040;-69
2022/10/26 11:34:09;;;;;;;;;;;18.90;74.80;;;;;;4492766;32;20103;-69
2022/10/26 11:36:37;;;;;;;;;;;18.90;74.80;;;;;;4493855;31;20386;-70
2022/10/26 11:39:03;;;;;;;;;;;18.90;74.80;;;;;;4495694;31;20070;-69
2022/10/26 11:41:32;;;;;;;;;;;18.90;74.80;;;;;;4495923;31;20027;-69
2022/10/26 11:44:04;;;;;;;;;;;18.90;74.80;;;;;;4495876;31;19973;-69
2022/10/26 11:46:30;;;;;;;;;;;19.00;74.80;;;;;;4495698;31;19981;-69
2022/10/26 11:49:14;;;;;;;;;;;18.90;74.70;;;;;;4495524;31;19981;-69
2022/10/26 11:51:40;;;;;;;;;;;18.90;74.70;;;;;;4495249;31;19973;-69
2022/10/26 11:54:15;;;;;;;;;;;18.90;74.80;;;;;;4495529;31;19976;-69
2022/10/26 11:56:46;;;;;;;;;;;19.00;74.80;;;;;;4495458;31;19977;-69
2022/10/26 11:59:19;;;;;;;;;;;18.90;74.70;;;;;;4495292;31;19977;-69
2022/10/26 12:01:56;;;;;;;;;;;19.00;74.80;;;;;;4495564;31;19969;-69
2022/10/26 12:04:24;;;;;;;;;;;18.90;74.70;;;;;;4495424;31;19996;-69
2022/10/26 12:06:51;;;;;;;;;;;18.90;74.70;;;;;;4495141;31;20119;-69
2022/10/26 12:09:19;;;;;;;;;;;19.00;74.70;;;;;;4495237;31;19978;-69
2022/10/26 12:11:48;;;;;;;;;;;18.90;74.70;;;;;;4495204;31;19984;-69
2022/10/26 12:14:26;;;;;;;;;;;18.90;74.70;;;;;;4495209;31;20472;-69
2022/10/26 12:17:01;;;;;;;;;;;19.00;74.70;;;;;;4494895;31;19977;-69
2022/10/26 12:19:26;;;;;;;;;;;18.90;74.70;;;;;;4495140;31;19973;-69
2022/10/26 12:21:53;;;;;;;;;;;19.00;74.70;;;;;;4495073;31;20009;-69
2022/10/26 12:24:22;;;;;;;;;;;19.00;74.70;;;;;;4494777;31;19992;-69
2022/10/26 12:26:58;;;;;;;;;;;18.90;74.70;;;;;;4494946;31;20516;-69
2022/10/26 12:29:43;;;;;;;;;;;19.00;74.70;;;;;;4495166;31;19985;-69
2022/10/26 12:32:27;;;;;;;;;;;18.90;74.70;;;;;;4494997;31;20460;-69
2022/10/26 12:34:53;;;;;;;;;;;18.90;74.70;;;;;;4494629;31;20464;-69
2022/10/26 12:37:29;;;;;;;;;;;18.90;74.70;;;;;;4494984;31;19985;-70
2022/10/26 12:40:14;;;;;;;;;;;19.00;74.70;;;;;;4495202;31;20347;-69
2022/10/26 12:42:40;;;;;;;;;;;18.90;74.60;;;;;;4494642;31;20405;-69
2022/10/26 12:45:13;;;;;;;;;;;19.00;74.70;;;;;;4494855;31;19965;-69
2022/10/26 12:47:39;;;;;;;;;;;18.90;74.70;;;;;;4494097;31;20017;-69
2022/10/26 12:50:04;;;;;;;;;;;19.00;74.70;;;;;;4494709;31;19977;-69
2022/10/26 12:52:32;;;;;;;;;;;19.00;74.70;;;;;;4494678;31;19976;-69
2022/10/26 12:55:12;;;;;;;;;;;19.00;74.70;;;;;;4494826;31;20095;-69
2022/10/26 12:57:53;;;;;;;;;;;19.00;74.70;;;;;;4494563;31;20043;-70
2022/10/26 13:00:23;;;;;;;;;;;19.00;74.80;;;;;;4494327;31;20029;-69
2022/10/26 13:03:07;;;;;;;;;;;19.00;74.70;;;;;;4494653;31;20064;-69
2022/10/26 13:05:48;;;;;;;;;;;19.00;74.70;;;;;;4494168;31;19969;-69
2022/10/26 13:08:14;;;;;;;;;;;19.00;74.70;;;;;;4494396;31;19974;-69
2022/10/26 13:10:45;;;;;;;;;;;19.00;74.70;;;;;;4479898;31;19984;-69
2022/10/26 13:13:21;;;;;;;;;;;19.00;74.70;;;;;;4495605;31;20407;-69
2022/10/26 13:15:54;;;;;;;;;;;19.00;74.70;;;;;;4495260;31;19974;-69
2022/10/26 13:18:21;;;;;;;;;;;19.00;74.70;;;;;;4493964;31;20401;-69
2022/10/26 13:20:52;;;;;;;;;;;19.00;74.80;;;;;;4494258;31;19974;-69
2022/10/26 13:23:24;;;;;;;;;;;19.00;74.80;;;;;;4494194;31;19969;-69
2022/10/26 13:26:13;;;;;;;;;;;19.00;74.70;;;;;;4493962;31;19992;-69
2022/10/26 13:28:39;;;;;;;;;;;19.00;74.80;;;;;;4494157;31;19996;-69
2022/10/26 13:31:11;;;;;;;;;;;19.00;74.80;;;;;;4494049;31;19974;-69
2022/10/26 13:33:39;;;;;;;;;;;19.00;74.80;;;;;;4479949;31;20406;-70
2022/10/26 13:36:16;;;;;;;;;;;18.90;74.80;;;;;;4494358;31;19985;-69
2022/10/26 13:38:43;;;;;;;;;;;18.90;74.80;;;;;;4494052;31;19978;-69
2022/10/26 13:41:15;;;;;;;;;;;18.90;74.80;;;;;;4494151;31;20500;-69
2022/10/26 13:43:42;;;;;;;;;;;18.90;75.70;;;;;;4494152;31;19997;-69
2022/10/26 13:46:17;;;;;;;;;;;19.00;74.90;;;;;;4494023;31;20322;-69
2022/10/26 13:48:44;;;;;;;;;;;19.00;74.90;;;;;;4479895;31;19989;-69
2022/10/26 13:51:33;;;;;;;;;;;18.90;74.90;;;;;;4493801;31;19974;-69
2022/10/26 13:54:06;;;;;;;;;;;18.90;74.90;;;;;;4487302;31;20037;-69
2022/10/26 13:56:38;;;;;;;;;;;19.00;75.00;;;;;;4493693;31;19973;-69
2022/10/26 13:59:08;;;;;;;;;;;18.90;74.90;;;;;;4493353;31;20058;-69
2022/10/26 14:01:33;;;;;;;;;;;18.90;74.90;;;;;;4493517;31;20115;-69
2022/10/26 14:04:13;;;;;;;;;;;19.00;75.00;;;;;;4493844;31;19989;-69
2022/10/26 14:06:39;;;;;;;;;;;18.90;74.90;;;;;;4493734;31;20013;-69
2022/10/26 14:09:10;;;;;;;;;;;18.90;75.00;;;;;;4493476;31;19961;-69
2022/10/26 14:11:42;;;;;;;;;;;18.90;75.00;;;;;;4493761;31;19977;-70
2022/10/26 14:14:13;;;;;;;;;;;18.90;75.00;;;;;;4493556;31;19970;-69
2022/10/26 14:16:45;;;;;;;;;;;18.90;75.00;;;;;;4493493;31;20374;-70
2022/10/26 14:19:15;;;;;;;;;;;18.90;75.00;;;;;;4493727;31;20123;-69
2022/10/26 14:21:41;;;;;;;;;;;18.90;75.10;;;;;;4493278;31;20052;-69
2022/10/26 14:24:18;;;;;;;;;;;18.90;75.10;;;;;;4493225;31;20051;-69
2022/10/26 14:26:45;;;;;;;;;;;18.90;75.10;;;;;;4493253;31;19981;-69
2022/10/26 14:29:22;;;;;;;;;;;18.90;75.20;;;;;;4492880;31;19984;-69
2022/10/26 14:31:50;;;;;;;;;;;18.90;75.20;;;;;;4493054;31;19996;-69